Time;durP1;ratioP1;P1;durP2;ratioP2;P2;SDS_P1;SDS_P2;PMS_P1;PMS_P2;Temp;Humidity;BMP_temperature;BMP_pressure;BME280_temperature;BME280_humidity;BME280_pressure;Samples;Min_cycle;Max_cycle;Signal;HPM_P1;HPM_P2
2022/08/22 00:03:32;;;;;;;10.40;2.53;;;15.30;99.90;;;;;;7311116;32;20229;-60
2022/08/22 00:07:44;;;;;;;;;;;15.20;99.90;;;;;;7314328;32;20167;-61
2022/08/22 00:12:00;;;;;;;7.60;2.30;;;15.10;99.90;;;;;;7316199;32;20057;-61
2022/08/22 00:16:26;;;;;;;7.87;2.20;;;15.00;99.90;;;;;;7314284;32;20175;-60
2022/08/22 00:20:34;;;;;;;5.28;2.70;;;15.00;99.90;;;;;;7315782;32;20414;-60
2022/08/22 00:24:40;;;;;;;6.12;2.12;;;14.90;99.90;;;;;;7318636;32;20159;-62
2022/08/22 00:28:58;;;;;;;7.93;2.47;;;14.90;99.90;;;;;;7317739;32;20205;-60
2022/08/22 00:33:28;;;;;;;6.18;2.15;;;14.80;99.90;;;;;;7319584;32;20215;-60
2022/08/22 00:37:43;;;;;;;8.40;2.72;;;14.80;99.90;;;;;;7307479;32;20112;-61
2022/08/22 00:42:24;;;;;;;4.47;2.53;;;14.80;99.90;;;;;;7307167;32;20132;-61
2022/08/22 00:46:39;;;;;;;5.68;2.80;;;14.70;99.90;;;;;;7315366;32;20206;-60
2022/08/22 00:50:49;;;;;;;6.00;2.97;;;14.60;99.90;;;;;;7306303;32;20760;-61
2022/08/22 00:55:10;;;;;;;4.60;2.47;;;14.50;99.90;;;;;;7307892;32;20247;-61
2022/08/22 00:59:14;;;;;;;6.45;2.60;;;14.50;99.90;;;;;;7307723;32;20205;-64
2022/08/22 01:03:51;;;;;;;9.20;2.70;;;14.40;99.90;;;;;;7309317;32;20117;-61
2022/08/22 01:08:30;;;;;;;7.30;2.80;;;14.40;99.90;;;;;;7313516;32;20700;-62
2022/08/22 01:12:41;;;;;;;7.87;2.72;;;14.30;99.90;;;;;;7313876;32;20184;-63
2022/08/22 01:16:59;;;;;;;4.70;2.60;;;14.30;99.90;;;;;;7323546;32;20106;-63
2022/08/22 01:21:32;;;;;;;5.50;2.80;;;14.30;99.90;;;;;;7310387;32;20164;-63
2022/08/22 01:26:08;;;;;;;10.85;3.15;;;14.20;99.90;;;;;;7320884;32;20103;-62
2022/08/22 01:30:48;;;;;;;8.23;3.00;;;14.20;99.90;;;;;;7303183;32;20214;-62
2022/08/22 01:35:01;;;;;;;8.88;3.40;;;14.10;99.90;;;;;;7311881;32;20103;-61
2022/08/22 01:39:14;;;;;;;4.55;2.83;;;14.00;99.90;;;;;;7314171;32;20116;-63
2022/08/22 01:43:48;;;;;;;6.00;3.10;;;14.00;99.90;;;;;;7302292;32;20256;-63
2022/08/22 01:48:04;;;;;;;10.00;2.80;;;13.90;99.90;;;;;;7306066;32;20154;-61
2022/08/22 01:52:35;;;;;;;8.10;3.05;;;13.90;99.90;;;;;;7306947;32;20178;-63
2022/08/22 01:56:43;;;;;;;7.45;3.58;;;13.80;99.90;;;;;;7314380;32;20167;-63
2022/08/22 02:01:18;;;;;;;6.50;3.33;;;13.80;99.90;;;;;;7319211;32;20572;-62
2022/08/22 02:05:27;;;;;;;6.75;3.20;;;13.70;99.90;;;;;;7315873;32;20420;-63
2022/08/22 02:09:47;;;;;;;5.90;3.22;;;13.70;99.90;;;;;;7315722;32;20107;-62
2022/08/22 02:14:17;;;;;;;9.65;3.40;;;13.60;99.90;;;;;;7311042;32;20198;-63
2022/08/22 02:19:03;;;;;;;6.25;3.80;;;13.50;99.90;;;;;;7311271;32;20161;-63
2022/08/22 02:23:13;;;;;;;8.50;3.60;;;13.50;99.90;;;;;;7314126;32;20217;-63
2022/08/22 02:27:49;;;;;;;7.60;3.40;;;13.50;99.90;;;;;;7312229;32;20678;-63
2022/08/22 02:31:56;;;;;;;5.75;3.30;;;13.40;99.90;;;;;;7311225;32;20187;-61
2022/08/22 02:36:20;;;;;;;5.97;3.42;;;13.30;99.90;;;;;;7313884;32;20679;-62
2022/08/22 02:40:29;;;;;;;7.07;3.50;;;13.30;99.90;;;;;;7311795;32;20125;-60
2022/08/22 02:44:35;;;;;;;8.35;3.78;;;13.20;99.90;;;;;;7312475;32;20796;-59
2022/08/22 02:48:49;;;;;;;5.53;3.42;;;13.20;99.90;;;;;;7305953;32;20256;-61
2022/08/22 02:53:05;;;;;;;3.83;3.28;;;13.20;99.90;;;;;;7309059;32;20986;-60
2022/08/22 02:57:28;;;;;;;8.27;3.60;;;13.10;99.90;;;;;;7312568;32;20269;-61
2022/08/22 03:01:44;;;;;;;6.85;3.47;;;13.10;99.90;;;;;;7313699;32;20170;-61
2022/08/22 03:06:00;;;;;;;5.57;3.03;;;13.10;99.90;;;;;;7312255;32;20115;-60
2022/08/22 03:10:14;;;;;;;4.37;3.28;;;13.10;99.90;;;;;;7312112;32;20621;-59
2022/08/22 03:14:34;;;;;;;6.93;3.87;;;13.00;99.90;;;;;;7315802;32;20139;-60
2022/08/22 03:19:07;;;;;;;8.45;3.62;;;13.00;99.90;;;;;;7314599;32;20134;-59
2022/08/22 03:23:39;;;;;;;7.18;3.47;;;13.00;99.90;;;;;;7313587;32;20122;-61
2022/08/22 03:27:49;;;;;;;7.35;3.53;;;13.00;99.90;;;;;;7317128;32;20488;-59
2022/08/22 03:32:23;;;;;;;6.60;3.58;;;13.00;99.90;;;;;;7312919;32;20245;-59
2022/08/22 03:36:30;;;;;;;5.93;3.58;;;12.90;99.90;;;;;;7315697;32;20100;-59
2022/08/22 03:40:51;;;;;;;9.77;3.83;;;12.80;99.90;;;;;;7314202;32;20133;-59
2022/08/22 03:45:14;;;;;;;7.10;3.83;;;12.90;99.90;;;;;;7315565;32;20509;-60
2022/08/22 03:49:51;;;;;;;7.00;3.62;;;12.80;99.90;;;;;;7308689;32;20194;-60
2022/08/22 03:54:27;;;;;;;6.57;3.55;;;12.90;99.90;;;;;;7311991;32;20147;-60
2022/08/22 03:58:50;;;;;;;;;;;12.90;99.90;;;;;;7298356;32;20248;-61
2022/08/22 04:03:04;;;;;;;9.77;3.90;;;12.90;99.90;;;;;;7310541;32;20042;-60
2022/08/22 04:07:30;;;;;;;5.95;3.95;;;12.90;99.90;;;;;;7310309;32;20150;-60
2022/08/22 04:11:55;;;;;;;8.63;4.20;;;12.90;99.90;;;;;;7311251;32;20119;-61
2022/08/22 04:16:11;;;;;;;8.95;4.30;;;13.00;99.90;;;;;;7312842;32;20184;-60
2022/08/22 04:20:48;;;;;;;8.10;3.37;;;13.00;99.90;;;;;;7313025;32;20194;-60
2022/08/22 04:24:57;;;;;;;7.40;3.85;;;13.00;99.90;;;;;;7307888;32;20242;-63
2022/08/22 04:29:15;;;;;;;8.77;4.53;;;13.00;99.90;;;;;;7300393;32;20520;-61
2022/08/22 04:33:27;;;;;;;7.90;3.78;;;13.00;99.90;;;;;;7314918;32;20586;-62
2022/08/22 04:37:55;;;;;;;8.00;4.18;;;13.10;99.90;;;;;;7315071;32;20162;-62
2022/08/22 04:42:20;;;;;;;;;;;13.20;99.90;;;;;;7320771;32;20188;-62
2022/08/22 04:47:01;;;;;;;11.30;4.43;;;13.20;99.90;;;;;;7313697;32;20008;-60
2022/08/22 04:51:21;;;;;;;8.88;4.43;;;13.30;99.90;;;;;;7308705;32;20104;-58
2022/08/22 04:55:43;;;;;;;6.32;4.28;;;13.30;99.90;;;;;;7317480;32;20122;-59
2022/08/22 04:59:46;;;;;;;9.88;4.57;;;13.40;99.90;;;;;;7318168;32;20146;-58
2022/08/22 05:04:04;;;;;;;6.22;4.75;;;13.40;99.90;;;;;;7317409;32;20143;-62
2022/08/22 05:08:12;;;;;;;19.40;12.50;;;13.40;99.90;;;;;;7305268;32;20182;-62
2022/08/22 05:12:17;;;;;;;;;;;13.50;99.90;;;;;;7317696;32;20201;-63
2022/08/22 05:16:26;;;;;;;8.43;4.30;;;13.50;99.90;;;;;;7319053;32;20072;-64
2022/08/22 05:20:29;;;;;;;6.97;4.32;;;13.50;99.90;;;;;;7315508;32;20143;-62
2022/08/22 05:24:42;;;;;;;7.10;4.15;;;13.60;99.90;;;;;;7318644;32;20753;-63
2022/08/22 05:28:51;;;;;;;11.52;4.87;;;13.60;99.90;;;;;;7301115;32;20157;-64
2022/08/22 05:33:06;;;;;;;8.38;4.45;;;13.80;99.90;;;;;;7315073;32;20123;-64
2022/08/22 05:37:19;;;;;;;7.32;6.12;;;13.90;99.90;;;;;;7307529;32;20229;-64
2022/08/22 05:41:25;;;;;;;7.45;4.70;;;14.00;99.90;;;;;;7310606;32;20206;-65
2022/08/22 05:45:27;;;;;;;7.30;4.47;;;14.10;99.90;;;;;;7302219;32;20335;-65
2022/08/22 05:49:47;;;;;;;9.45;4.65;;;14.30;99.90;;;;;;7310499;32;20289;-62
2022/08/22 05:54:00;;;;;;;8.18;4.55;;;14.40;99.90;;;;;;7311887;32;20155;-63
2022/08/22 05:58:22;;;;;;;8.02;5.00;;;14.50;99.90;;;;;;7316797;32;20242;-65
2022/08/22 06:03:13;;;;;;;7.75;4.97;;;14.70;99.90;;;;;;7311996;32;20752;-64
2022/08/22 06:07:47;;;;;;;7.60;4.35;;;14.70;99.90;;;;;;7238284;32;21050;-63
2022/08/22 06:11:59;;;;;;;8.48;3.97;;;14.80;99.90;;;;;;7270260;32;20169;-64
2022/08/22 06:16:07;;;;;;;9.05;4.00;;;14.80;99.90;;;;;;7321421;32;20206;-65
2022/08/22 06:20:19;;;;;;;7.00;4.50;;;14.90;99.90;;;;;;7323808;32;20104;-64
2022/08/22 06:24:26;;;;;;;7.62;4.30;;;15.10;99.90;;;;;;7320602;32;20784;-63
2022/08/22 06:28:33;;;;;;;5.78;3.55;;;15.30;99.90;;;;;;7307028;32;20177;-65
2022/08/22 06:32:41;;;;;;;6.32;3.78;;;15.60;99.90;;;;;;7317190;32;20723;-66
2022/08/22 06:37:06;;;;;;;6.90;4.12;;;15.80;99.90;;;;;;7324555;32;20120;-65
2022/08/22 06:41:09;;;;;;;8.27;5.68;;;16.20;99.90;;;;;;7310023;32;20108;-65
2022/08/22 06:45:21;;;;;;;11.40;4.82;;;16.50;99.90;;;;;;7319060;32;20130;-66
2022/08/22 06:49:24;;;;;;;9.13;4.25;;;16.80;99.90;;;;;;7312947;32;20126;-66
2022/08/22 06:53:43;;;;;;;7.12;4.10;;;17.10;99.90;;;;;;7316952;32;20194;-66
2022/08/22 06:58:16;;;;;;;6.95;4.28;;;17.40;99.90;;;;;;7317264;32;20111;-65
2022/08/22 07:02:36;;;;;;;10.65;3.87;;;17.60;99.90;;;;;;7310060;32;20291;-65
2022/08/22 07:06:48;;;;;;;10.35;3.80;;;18.00;99.90;;;;;;7316974;32;20225;-64
2022/08/22 07:11:07;;;;;;;9.50;2.85;;;18.40;99.90;;;;;;7316537;32;20119;-66
2022/08/22 07:15:32;;;;;;;12.05;4.90;;;18.60;99.90;;;;;;7316777;32;20245;-66
2022/08/22 07:19:44;;;;;;;8.40;2.92;;;19.10;99.90;;;;;;7314393;32;20104;-65
2022/08/22 07:23:47;;;;;;;7.72;2.47;;;19.40;99.90;;;;;;7304497;32;20190;-65
2022/08/22 07:28:05;;;;;;;8.77;2.40;;;19.80;99.90;;;;;;7316948;32;20131;-66
2022/08/22 07:32:40;;;;;;;8.95;2.37;;;20.20;99.90;;;;;;7306291;32;20198;-66
2022/08/22 07:37:13;;;;;;;7.97;1.92;;;20.60;99.90;;;;;;7310384;32;20152;-67
2022/08/22 07:41:19;;;;;;;6.82;1.83;;;20.90;99.90;;;;;;7314064;32;20099;-67
2022/08/22 07:45:30;;;;;;;8.38;2.05;;;21.40;99.90;;;;;;7304383;32;20242;-66
2022/08/22 07:49:41;;;;;;;6.47;1.65;;;21.60;99.90;;;;;;7309940;32;20199;-64
2022/08/22 07:53:59;;;;;;;6.80;1.45;;;21.80;99.90;;;;;;7313308;32;20622;-64
2022/08/22 07:58:04;;;;;;;6.95;1.75;;;22.10;99.90;;;;;;7312075;32;20387;-64
2022/08/22 08:02:11;;;;;;;4.07;1.60;;;22.20;99.90;;;;;;7309580;32;20431;-65
2022/08/22 08:06:13;;;;;;;7.40;1.30;;;22.40;99.90;;;;;;7307420;32;20201;-65
2022/08/22 08:10:22;;;;;;;7.18;1.60;;;22.60;99.90;;;;;;7298158;32;20448;-66
2022/08/22 08:14:25;;;;;;;4.78;1.30;;;22.80;99.90;;;;;;7313754;32;20179;-67
2022/08/22 08:18:30;;;;;;;7.87;1.85;;;22.90;99.90;;;;;;7321455;32;20845;-66
2022/08/22 08:22:33;;;;;;;6.50;1.70;;;23.10;99.90;;;;;;7324264;32;20832;-66
2022/08/22 08:28:32;;;;;;;4.47;1.30;;;22.90;99.90;;;;;;7324259;32;20176;-66
2022/08/22 08:31:20;;;;;;;4.63;1.37;;;22.90;99.90;;;;;;7325409;32;20176;-65
2022/08/22 08:35:32;;;;;;;6.45;1.67;;;23.10;99.90;;;;;;7322425;32;20442;-65
2022/08/22 08:39:57;;;;;;;6.15;1.50;;;22.90;99.90;;;;;;7323663;32;20208;-67
2022/08/22 08:44:23;;;;;;;6.45;1.40;;;23.20;99.90;;;;;;7323088;32;20103;-66
2022/08/22 08:48:49;;;;;;;5.30;1.10;;;23.20;99.90;;;;;;7320095;32;20245;-65
2022/08/22 08:53:12;;;;;;;6.60;1.50;;;23.70;99.90;;;;;;7324716;32;20553;-67
2022/08/22 08:57:19;;;;;;;4.50;1.20;;;24.10;99.90;;;;;;7321820;32;20716;-67
2022/08/22 09:01:34;;;;;;;5.72;1.67;;;24.60;99.90;;;;;;7324637;32;20344;-68
2022/08/22 09:05:51;;;;;;;7.05;1.35;;;24.70;99.90;;;;;;7323811;32;20264;-67
2022/08/22 09:09:59;;;;;;;;;;;24.40;99.90;;;;;;7310040;32;20510;-67
2022/08/22 09:14:20;;;;;;;6.12;1.37;;;25.20;99.90;;;;;;7324243;32;21210;-68
2022/08/22 09:18:35;;;;;;;8.07;1.48;;;26.00;99.90;;;;;;7319401;32;20230;-65
2022/08/22 09:22:49;;;;;;;5.55;1.52;;;26.70;99.90;;;;;;7324901;32;20231;-65
2022/08/22 09:27:00;;;;;;;6.95;1.10;;;26.60;99.70;;;;;;7324042;32;20100;-63
2022/08/22 09:31:22;;;;;;;3.97;1.27;;;26.90;98.20;;;;;;7319226;32;20204;-65
2022/08/22 09:35:50;;;;;;;4.15;1.40;;;27.30;97.40;;;;;;7320109;32;20108;-65
2022/08/22 09:40:02;;;;;;;6.10;1.35;;;27.40;95.90;;;;;;7324558;32;20099;-65
2022/08/22 09:44:22;;;;;;;8.65;1.25;;;27.90;94.90;;;;;;7299907;32;20241;-65
2022/08/22 09:48:47;;;;;;;5.45;1.15;;;28.70;94.00;;;;;;7314306;32;20126;-65
2022/08/22 09:53:08;;;;;;;6.40;1.55;;;29.20;91.40;;;;;;7320575;32;20512;-67
2022/08/22 09:57:39;;;;;;;5.57;1.45;;;29.10;91.40;;;;;;7311049;32;20146;-66
2022/08/22 10:02:12;;;;;;;7.47;1.40;;;29.70;86.10;;;;;;7320813;32;20153;-65
2022/08/22 10:06:26;;;;;;;5.97;1.40;;;28.80;85.30;;;;;;7322656;32;20175;-65
2022/08/22 10:10:50;;;;;;;5.80;1.10;;;30.20;85.80;;;;;;7318699;32;20119;-65
2022/08/22 10:15:03;;;;;;;5.10;1.50;;;30.50;82.50;;;;;;7325640;32;20309;-67
2022/08/22 10:19:25;;;;;;;6.10;1.10;;;31.10;81.10;;;;;;7304834;32;20104;-65
2022/08/22 10:23:53;;;;;;;4.72;1.20;;;31.70;81.00;;;;;;7313560;32;20337;-65
2022/08/22 10:28:14;;;;;;;6.37;1.62;;;32.30;71.20;;;;;;7312472;32;20103;-66
2022/08/22 10:32:29;;;;;;;5.32;1.40;;;29.90;71.90;;;;;;7311045;32;20133;-66
2022/08/22 10:36:47;;;;;;;5.62;1.10;;;29.10;77.00;;;;;;7308144;32;20091;-66
2022/08/22 10:41:42;;;;;;;6.22;1.52;;;28.40;80.30;;;;;;7315233;32;20248;-66
2022/08/22 10:46:09;;;;;;;4.57;1.20;;;27.80;79.50;;;;;;7314222;32;20187;-65
2022/08/22 10:50:37;;;;;;;4.55;1.23;;;27.60;82.80;;;;;;7316355;32;20200;-66
2022/08/22 10:54:42;;;;;;;6.53;1.60;;;27.20;84.50;;;;;;7312768;32;20402;-66
2022/08/22 10:59:05;;;;;;;3.83;1.37;;;27.00;84.20;;;;;;7312149;32;20247;-67
2022/08/22 11:03:37;;;;;;;4.03;1.12;;;27.30;85.90;;;;;;7312919;32;20873;-66
2022/08/22 11:08:06;;;;;;;6.72;1.25;;;27.20;85.50;;;;;;7293878;32;20260;-66
2022/08/22 11:12:26;;;;;;;7.65;1.67;;;27.20;82.40;;;;;;7309324;32;20116;-67
2022/08/22 11:16:47;;;;;;;43.35;37.92;;;27.20;83.40;;;;;;7311610;32;20496;-65
2022/08/22 11:21:01;;;;;;;4.03;1.33;;;27.30;84.10;;;;;;7296856;32;20118;-66
2022/08/22 11:25:24;;;;;;;5.37;1.30;;;27.30;85.60;;;;;;7310875;32;20860;-67
2022/08/22 11:29:56;;;;;;;8.75;2.00;;;27.20;83.00;;;;;;7312411;32;20122;-66
2022/08/22 11:34:09;;;;;;;4.57;1.25;;;27.10;83.10;;;;;;7308400;32;20320;-68
2022/08/22 11:38:27;;;;;;;3.45;1.35;;;26.90;82.70;;;;;;7316796;32;20333;-68
2022/08/22 11:42:44;;;;;;;4.47;1.27;;;27.10;84.20;;;;;;7306269;32;20191;-67
2022/08/22 11:46:51;;;;;;;5.93;1.37;;;27.00;85.80;;;;;;7310075;32;20181;-67
2022/08/22 11:51:16;;;;;;;4.85;1.27;;;27.20;83.00;;;;;;7311375;32;20099;-60
2022/08/22 11:55:30;;;;;;;3.65;1.23;;;27.20;84.70;;;;;;7315153;32;20130;-67
2022/08/22 11:59:41;;;;;;;5.85;1.10;;;27.10;83.40;;;;;;7317040;32;20569;-67
2022/08/22 12:03:43;;;;;;;8.70;1.73;;;27.30;81.80;;;;;;7310984;32;20200;-67
2022/08/22 12:08:23;;;;;;;5.40;1.45;;;27.60;81.60;;;;;;7299825;32;20135;-66
2022/08/22 12:12:43;;;;;;;4.87;1.35;;;27.60;82.20;;;;;;7314603;32;20757;-66
2022/08/22 12:16:56;;;;;;;2.92;1.12;;;27.70;80.60;;;;;;7315587;32;20123;-67
2022/08/22 12:21:12;;;;;;;7.20;1.50;;;27.60;80.80;;;;;;7308097;32;20134;-61
2022/08/22 12:25:52;;;;;;;5.50;1.23;;;27.90;82.20;;;;;;7311881;32;20115;-61
2022/08/22 12:30:04;;;;;;;6.28;1.58;;;27.80;83.40;;;;;;7307187;32;20123;-61
2022/08/22 12:34:37;;;;;;;4.18;1.17;;;27.90;84.70;;;;;;7308029;32;20234;-62
2022/08/22 12:38:58;;;;;;;4.97;1.45;;;28.00;79.80;;;;;;7296504;32;20152;-62
2022/08/22 12:43:42;;;;;;;5.87;1.40;;;28.30;81.40;;;;;;7304282;32;20228;-63
2022/08/22 12:48:13;;;;;;;3.35;1.10;;;28.20;79.40;;;;;;7268439;32;20614;-62
2022/08/22 12:52:50;;;;;;;6.78;1.50;;;28.20;81.70;;;;;;7301430;32;20147;-62
2022/08/22 12:57:07;;;;;;;3.87;1.30;;;28.00;81.30;;;;;;7310403;32;20186;-67
2022/08/22 13:01:26;;;;;;;3.37;1.40;;;27.90;80.90;;;;;;7314971;32;20502;-67
2022/08/22 13:05:37;;;;;;;5.00;1.60;;;28.00;80.90;;;;;;7318874;32;20103;-67
2022/08/22 13:09:47;;;;;;;8.25;2.00;;;28.20;80.80;;;;;;7320321;32;20104;-67
2022/08/22 13:14:01;;;;;;;11.05;4.47;;;28.60;80.40;;;;;;7319081;32;20247;-67
2022/08/22 13:18:15;;;;;;;7.65;1.40;;;28.80;79.50;;;;;;7316973;32;20121;-68
2022/08/22 13:22:33;;;;;;;4.93;1.23;;;28.60;77.40;;;;;;7319197;32;20123;-67
2022/08/22 13:26:37;;;;;;;4.37;1.30;;;28.40;77.00;;;;;;7324970;32;20210;-67
2022/08/22 13:30:44;;;;;;;5.68;1.73;;;27.90;76.70;;;;;;7314985;32;20134;-67
2022/08/22 13:34:52;;;;;;;5.75;1.50;;;27.70;78.30;;;;;;7315461;32;20154;-67
2022/08/22 13:39:24;;;;;;;4.35;1.48;;;27.90;78.00;;;;;;7318763;32;20190;-66
2022/08/22 13:43:36;;;;;;;7.35;1.45;;;28.20;80.30;;;;;;7324221;32;20195;-66
2022/08/22 13:47:49;;;;;;;6.68;1.90;;;28.10;78.00;;;;;;7320030;32;20127;-67
2022/08/22 13:52:15;;;;;;;7.20;1.70;;;28.20;76.30;;;;;;7298173;32;20849;-66
2022/08/22 13:57:01;;;;;;;4.68;1.90;;;28.30;76.00;;;;;;7323351;32;20115;-67
2022/08/22 14:01:03;;;;;;;5.68;2.67;;;28.50;72.00;;;;;;7296266;32;20278;-67
2022/08/22 14:05:09;;;;;;;13.38;2.60;;;28.50;76.60;;;;;;7319940;32;20153;-68
2022/08/22 14:09:20;;;;;;;4.55;1.52;;;28.60;79.30;;;;;;7306219;32;20103;-66
2022/08/22 14:13:54;;;;;;;4.82;1.50;;;28.60;74.00;;;;;;7301354;32;20247;-67
2022/08/22 14:18:08;;;;;;;4.22;1.70;;;28.90;76.80;;;;;;7318820;32;20161;-67
2022/08/22 14:22:21;;;;;;;4.45;1.70;;;28.80;73.30;;;;;;7319277;32;20116;-66
2022/08/22 14:27:07;;;;;;;3.50;1.37;;;29.00;74.50;;;;;;7314643;32;20243;-67
2022/08/22 14:31:13;;;;;;;4.57;1.60;;;29.20;72.10;;;;;;7316470;32;20201;-67
2022/08/22 14:35:17;;;;;;;6.05;1.62;;;28.80;71.90;;;;;;7296255;32;20356;-68
2022/08/22 14:39:41;;;;;;;6.03;1.50;;;28.80;72.60;;;;;;7316701;32;20210;-68
2022/08/22 14:44:02;;;;;;;4.30;1.50;;;29.20;73.90;;;;;;7322262;32;20176;-69
2022/08/22 14:48:18;;;;;;;2.92;1.20;;;29.40;65.50;;;;;;7314701;32;20100;-68
2022/08/22 14:52:47;;;;;;;4.43;1.25;;;29.20;68.70;;;;;;7317026;32;20222;-62
2022/08/22 14:56:51;;;;;;;5.28;1.62;;;28.90;70.20;;;;;;7303817;32;20704;-68
2022/08/22 15:00:55;;;;;;;4.75;1.48;;;28.60;65.60;;;;;;7318975;32;20130;-69
2022/08/22 15:05:09;;;;;;;5.45;1.70;;;28.30;70.10;;;;;;7299691;32;20212;-69
2022/08/22 15:10:01;;;;;;;3.78;1.42;;;28.40;68.30;;;;;;7313811;32;20218;-69
2022/08/22 15:14:07;;;;;;;5.60;1.62;;;28.30;67.90;;;;;;7292694;32;20103;-68
2022/08/22 15:18:40;;;;;;;7.47;1.60;;;28.50;68.20;;;;;;7317090;32;20104;-68
2022/08/22 15:23:20;;;;;;;3.50;1.42;;;28.10;65.60;;;;;;7313245;32;20723;-69
2022/08/22 15:27:24;;;;;;;4.70;3.80;;;27.60;72.20;;;;;;7312203;32;20510;-68
2022/08/22 15:31:28;;;;;;;6.37;1.85;;;27.50;73.30;;;;;;7298898;32;20244;-68
2022/08/22 15:35:31;;;;;;;6.72;1.90;;;27.40;72.50;;;;;;7315403;32;20202;-68
2022/08/22 15:39:36;;;;;;;5.00;1.98;;;27.40;71.00;;;;;;7318826;32;20283;-68
2022/08/22 15:43:49;;;;;;;4.60;1.50;;;27.40;71.40;;;;;;7316764;32;20217;-68
2022/08/22 15:48:00;;;;;;;4.07;1.67;;;27.50;70.90;;;;;;7312786;32;20705;-68
2022/08/22 15:52:02;;;;;;;3.80;1.70;;;27.40;71.80;;;;;;7311257;32;20116;-67
2022/08/22 15:56:27;;;;;;;4.60;1.80;;;27.40;71.80;;;;;;7313039;32;20177;-68
2022/08/22 16:00:39;;;;;;;4.65;1.95;;;27.30;70.60;;;;;;7312254;32;20243;-68
2022/08/22 16:05:01;;;;;;;8.23;6.13;;;27.20;73.30;;;;;;7305622;32;20401;-67
2022/08/22 16:09:03;;;;;;;4.53;1.98;;;27.10;74.80;;;;;;7310431;32;20143;-67
2022/08/22 16:13:14;;;;;;;6.70;3.60;;;27.00;73.90;;;;;;7298775;32;20441;-67
2022/08/22 16:17:28;;;;;;;4.65;2.33;;;26.80;74.00;;;;;;7313572;32;20301;-68
2022/08/22 16:21:30;;;;;;;3.60;1.50;;;26.80;75.30;;;;;;7308562;32;20324;-67
2022/08/22 16:25:44;;;;;;;4.18;1.67;;;26.80;75.40;;;;;;7317645;32;20389;-68
2022/08/22 16:29:46;;;;;;;5.37;1.77;;;26.60;78.00;;;;;;7309154;32;20136;-68
2022/08/22 16:33:48;;;;;;;4.60;1.95;;;26.40;78.50;;;;;;7312918;32;20266;-61
2022/08/22 16:37:57;;;;;;;8.02;1.90;;;26.30;79.30;;;;;;7321383;32;20095;-68
2022/08/22 16:42:14;;;;;;;3.03;1.52;;;26.30;80.20;;;;;;7323208;32;20150;-66
2022/08/22 16:46:28;;;;;;;4.62;1.70;;;26.30;78.80;;;;;;7318267;32;20095;-66
2022/08/22 16:50:39;;;;;;;4.43;1.60;;;26.20;78.90;;;;;;7315930;32;20238;-68
2022/08/22 16:54:49;;;;;;;4.53;1.58;;;26.20;79.40;;;;;;7322711;32;20115;-67
2022/08/22 16:59:22;;;;;;;3.85;1.90;;;26.10;79.00;;;;;;7319776;32;20161;-65
2022/08/22 17:03:30;;;;;;;5.10;1.80;;;26.00;79.10;;;;;;7317824;32;20135;-67
2022/08/22 17:07:43;;;;;;;5.20;1.90;;;25.90;81.00;;;;;;7318277;32;20834;-64
2022/08/22 17:12:20;;;;;;;5.45;1.60;;;25.80;81.40;;;;;;7317185;32;20245;-65
2022/08/22 17:16:24;;;;;;;31.70;27.83;;;25.80;82.10;;;;;;7313799;32;20243;-68
2022/08/22 17:20:45;;;;;;;6.87;2.37;;;25.80;82.00;;;;;;7323245;32;20732;-66
2022/08/22 17:25:02;;;;;;;3.17;1.58;;;25.90;80.80;;;;;;7324074;32;20103;-67
2022/08/22 17:29:13;;;;;;;2.80;1.50;;;26.00;80.30;;;;;;7318704;32;20112;-64
2022/08/22 17:33:22;;;;;;;7.22;1.80;;;25.90;80.20;;;;;;7319404;32;20178;-65
2022/08/22 17:38:01;;;;;;;4.95;1.60;;;25.80;81.40;;;;;;7321555;32;20191;-66
2022/08/22 17:42:41;;;;;;;3.40;1.55;;;25.70;82.90;;;;;;7319436;32;20603;-66
2022/08/22 17:46:48;;;;;;;5.72;1.98;;;25.60;84.00;;;;;;7318292;32;20096;-66
2022/08/22 17:50:53;;;;;;;29.25;25.98;;;25.40;86.30;;;;;;7316589;32;20270;-64
2022/08/22 17:55:22;;;;;;;9.30;4.95;;;25.10;89.20;;;;;;7319263;32;20126;-65
2022/08/22 17:59:32;;;;;;;7.80;3.15;;;24.80;91.70;;;;;;7308737;32;20195;-64
2022/08/22 18:03:38;;;;;;;5.12;1.80;;;24.50;94.40;;;;;;7315050;32;20118;-65
2022/08/22 18:07:43;;;;;;;7.37;2.20;;;24.20;95.90;;;;;;7321012;32;20123;-65
2022/08/22 18:12:03;;;;;;;6.97;2.12;;;24.10;97.60;;;;;;7320346;32;20234;-65
2022/08/22 18:16:54;;;;;;;6.28;2.10;;;23.80;99.90;;;;;;7317001;32;20368;-66
2022/08/22 18:21:22;;;;;;;8.23;4.00;;;23.50;99.90;;;;;;7311481;32;20542;-64
2022/08/22 18:25:42;;;;;;;4.43;2.65;;;23.40;99.90;;;;;;7312977;32;20206;-64
2022/08/22 18:30:09;;;;;;;4.20;1.90;;;23.20;99.90;;;;;;7319868;32;20207;-65
2022/08/22 18:34:38;;;;;;;4.82;1.90;;;22.90;99.90;;;;;;7315378;32;20195;-66
2022/08/22 18:39:15;;;;;;;6.82;2.03;;;22.70;99.90;;;;;;7315193;32;20100;-68
2022/08/22 18:43:24;;;;;;;12.45;2.12;;;22.40;99.90;;;;;;7316175;32;20271;-65
2022/08/22 18:47:33;;;;;;;7.30;2.50;;;22.20;99.90;;;;;;7320237;32;20238;-65
2022/08/22 18:51:37;;;;;;;5.70;2.28;;;22.00;99.90;;;;;;7311755;32;20103;-64
2022/08/22 18:56:00;;;;;;;11.40;2.12;;;21.80;99.90;;;;;;7318928;32;20549;-65
2022/08/22 19:00:04;;;;;;;11.95;2.30;;;21.60;99.90;;;;;;7313893;32;20820;-64
2022/08/22 19:04:41;;;;;;;4.53;2.22;;;21.50;99.90;;;;;;7313934;32;20183;-65
2022/08/22 19:08:52;;;;;;;7.10;2.00;;;21.40;99.90;;;;;;7303530;32;20100;-65
2022/08/22 19:13:32;;;;;;;4.47;1.95;;;21.30;99.90;;;;;;7322756;32;20203;-64
2022/08/22 19:17:49;;;;;;;6.15;5.55;;;21.20;99.90;;;;;;7318353;32;20656;-65
2022/08/22 19:22:40;;;;;;;8.95;6.72;;;21.00;99.90;;;;;;7309381;32;20483;-65
2022/08/22 19:27:17;;;;;;;10.55;9.45;;;20.90;99.90;;;;;;7310292;32;20482;-66
2022/08/22 19:31:24;;;;;;;6.07;3.08;;;20.80;99.90;;;;;;7311397;32;20321;-65
2022/08/22 19:36:03;;;;;;;6.22;3.83;;;20.70;99.90;;;;;;7300996;32;20104;-65
2022/08/22 19:40:10;;;;;;;4.15;2.17;;;20.60;99.90;;;;;;7319337;32;20190;-65
2022/08/22 19:44:37;;;;;;;5.12;1.95;;;20.60;99.90;;;;;;7314443;32;20158;-65
2022/08/22 19:48:49;;;;;;;4.53;2.25;;;20.50;99.90;;;;;;7313595;32;20191;-65
2022/08/22 19:53:23;;;;;;;6.05;2.10;;;20.40;99.90;;;;;;7317653;32;20242;-66
2022/08/22 19:57:59;;;;;;;7.07;1.87;;;20.40;99.90;;;;;;7315062;32;20191;-65
2022/08/22 20:02:40;;;;;;;5.65;2.20;;;20.30;99.90;;;;;;7296688;32;20112;-65
2022/08/22 20:06:57;;;;;;;9.63;2.50;;;20.20;99.90;;;;;;7311474;32;20134;-66
2022/08/22 20:11:20;;;;;;;7.53;3.35;;;20.20;99.90;;;;;;7313726;32;20725;-65
2022/08/22 20:15:25;;;;;;;5.30;2.30;;;20.20;99.90;;;;;;7310194;32;20188;-67
2022/08/22 20:19:51;;;;;;;6.30;2.90;;;20.10;99.90;;;;;;7308166;32;20139;-66
2022/08/22 20:24:27;;;;;;;6.37;2.83;;;20.00;99.90;;;;;;7307619;32;20179;-66
2022/08/22 20:28:32;;;;;;;6.90;2.40;;;19.90;99.90;;;;;;7316885;32;20208;-68
2022/08/22 20:32:45;;;;;;;6.05;2.55;;;19.90;99.90;;;;;;7313578;32;20117;-67
2022/08/22 20:36:47;;;;;;;8.25;2.60;;;19.80;99.90;;;;;;7315463;32;20196;-67
2022/08/22 20:41:28;;;;;;;5.30;2.35;;;19.80;99.90;;;;;;7317086;32;20186;-65
2022/08/22 20:45:30;;;;;;;10.15;2.90;;;19.80;99.90;;;;;;7318124;32;20522;-66
2022/08/22 20:49:44;;;;;;;7.00;3.20;;;19.70;99.90;;;;;;7312317;32;20955;-65
2022/08/22 20:53:58;;;;;;;8.43;2.67;;;19.70;99.90;;;;;;7313878;32;20720;-67
2022/08/22 20:58:04;;;;;;;9.18;2.47;;;19.60;99.90;;;;;;7311951;32;20151;-66
2022/08/22 21:02:13;;;;;;;7.00;2.80;;;19.60;99.90;;;;;;7315861;32;20096;-66
2022/08/22 21:06:20;;;;;;;5.62;2.60;;;19.50;99.90;;;;;;7304521;32;20119;-66
2022/08/22 21:14:46;;;;;;;6.82;3.37;;;19.40;99.90;;;;;;7312191;32;20743;-67
2022/08/22 21:18:51;;;;;;;6.00;3.30;;;19.40;99.90;;;;;;7302231;32;20130;-66
2022/08/22 21:22:54;;;;;;;6.47;2.90;;;19.30;99.90;;;;;;7314206;32;20291;-66
2022/08/22 21:27:00;;;;;;;6.82;3.03;;;19.30;99.90;;;;;;7298047;32;20519;-66
2022/08/22 21:31:19;;;;;;;7.25;3.15;;;19.20;99.90;;;;;;7315622;32;20114;-66
2022/08/22 21:35:32;;;;;;;11.27;3.28;;;19.20;99.90;;;;;;7311633;32;20710;-66
2022/08/22 21:39:40;;;;;;;5.87;2.95;;;19.10;99.90;;;;;;7305540;32;20183;-68
2022/08/22 21:43:42;;;;;;;6.57;2.92;;;19.10;99.90;;;;;;7315553;32;20107;-67
2022/08/22 21:47:52;;;;;;;4.03;2.90;;;19.10;99.90;;;;;;7319193;32;20114;-66
2022/08/22 21:51:55;;;;;;;6.93;3.22;;;18.90;99.90;;;;;;7321696;32;20107;-66
2022/08/22 21:56:12;;;;;;;9.43;3.25;;;18.80;99.90;;;;;;7319292;32;20186;-67
2022/08/22 22:00:48;;;;;;;8.63;4.03;;;18.70;99.90;;;;;;7322805;32;20241;-66
2022/08/22 22:04:50;;;;;;;11.30;3.05;;;18.60;99.90;;;;;;7323476;32;20186;-65
2022/08/22 22:08:53;;;;;;;10.00;3.45;;;18.50;99.90;;;;;;7322162;32;20233;-66
2022/08/22 22:12:57;;;;;;;4.87;3.00;;;18.40;99.90;;;;;;7320230;32;20321;-66
2022/08/22 22:16:59;;;;;;;7.72;3.55;;;18.30;99.90;;;;;;7318185;32;20289;-66
2022/08/22 22:21:01;;;;;;;5.72;3.78;;;18.20;99.90;;;;;;7320748;32;20194;-66
2022/08/22 22:25:03;;;;;;;6.10;3.28;;;18.10;99.90;;;;;;7320178;32;20581;-66
2022/08/22 22:29:26;;;;;;;7.57;3.45;;;18.00;99.90;;;;;;7319753;32;20734;-66